createdAt,value
2022-12-14T00:01:10.641Z,11.14
2022-12-14T00:02:12.641Z,11.88
2022-12-14T00:03:16.112Z,11.81
2022-12-14T00:04:18.234Z,11.51
2022-12-14T00:05:20.732Z,11.41
2022-12-14T00:06:25.976Z,9.11
2022-12-14T00:07:28.623Z,10.18
2022-12-14T00:08:30.598Z,10.22
2022-12-14T00:09:32.661Z,9.69
2022-12-14T00:10:36.502Z,8.90
2022-12-14T00:11:38.446Z,9.14
2022-12-14T00:12:40.570Z,8.95
2022-12-14T00:13:43.130Z,8.45
2022-12-14T00:14:45.324Z,8.45
2022-12-14T00:15:47.410Z,8.31
2022-12-14T00:16:49.550Z,8.83
2022-12-14T00:17:51.424Z,9.17
2022-12-14T00:18:56.179Z,9.19
2022-12-14T00:19:58.131Z,9.25
2022-12-14T00:21:05.563Z,8.58
2022-12-14T00:22:07.579Z,9.73
2022-12-14T00:23:10.320Z,10.09
2022-12-14T00:24:12.266Z,10.64
2022-12-14T00:25:14.281Z,10.17
2022-12-14T00:26:25.962Z,10.73
2022-12-14T00:27:33.089Z,11.13
2022-12-14T00:28:36.134Z,9.76
2022-12-14T00:29:38.074Z,10.26
2022-12-14T00:30:40.158Z,11.35
2022-12-14T00:31:42.053Z,10.71
2022-12-14T00:32:44.730Z,11.35
2022-12-14T00:33:46.985Z,10.45
2022-12-14T00:34:48.870Z,10.53
2022-12-14T00:35:51.885Z,9.59
2022-12-14T00:36:54.359Z,9.64
2022-12-14T00:37:56.235Z,9.28
2022-12-14T00:38:58.511Z,8.97
2022-12-14T00:40:00.798Z,9.78
2022-12-14T00:41:03.660Z,9.07
2022-12-14T00:42:05.653Z,9.21
2022-12-14T00:43:07.634Z,9.03
2022-12-14T00:44:09.675Z,8.63
2022-12-14T00:45:11.561Z,9.11
2022-12-14T00:46:13.985Z,9.22
2022-12-14T00:47:16.041Z,9.68
2022-12-14T00:48:20.649Z,8.89
2022-12-14T00:49:22.586Z,9.81
2022-12-14T00:50:24.654Z,9.41
2022-12-14T00:51:26.766Z,9.28
2022-12-14T00:52:29.242Z,9.43
2022-12-14T00:53:31.122Z,9.06
2022-12-14T00:54:33.002Z,9.69
2022-12-14T00:55:42.379Z,9.91
2022-12-14T00:56:44.412Z,9.82
2022-12-14T00:57:46.277Z,9.88
2022-12-14T00:58:52.321Z,9.99
2022-12-14T00:59:55.716Z,10.17
2022-12-14T01:01:00.941Z,9.34
2022-12-14T01:02:03.826Z,9.13
2022-12-14T01:03:06.635Z,9.92
2022-12-14T01:04:08.671Z,9.51
2022-12-14T01:05:10.814Z,9.15
2022-12-14T01:06:21.949Z,13.94
2022-12-14T01:07:23.984Z,12.29
2022-12-14T01:08:26.468Z,10.81
2022-12-14T01:09:28.748Z,11.81
2022-12-14T01:10:31.126Z,12.92
2022-12-14T01:11:33.053Z,12.15
2022-12-14T01:12:35.012Z,11.73
2022-12-14T01:13:37.544Z,11.23
2022-12-14T01:14:41.178Z,11.37
2022-12-14T01:15:43.327Z,12.49
2022-12-14T01:16:45.592Z,14.28
2022-12-14T01:17:47.556Z,10.99
2022-12-14T01:18:49.805Z,10.43
2022-12-14T01:19:51.776Z,12.07
2022-12-14T01:20:53.745Z,12.02
2022-12-14T01:21:55.683Z,12.06
2022-12-14T01:22:57.691Z,12.07
2022-12-14T01:24:02.308Z,10.54
2022-12-14T01:25:05.708Z,10.06
2022-12-14T01:26:08.106Z,9.85
2022-12-14T01:27:10.017Z,11.16
2022-12-14T01:28:12.024Z,11.97
2022-12-14T01:29:13.907Z,10.88
2022-12-14T01:30:16.202Z,10.85
2022-12-14T01:31:21.473Z,11.11
2022-12-14T01:32:24.405Z,12.22
2022-12-14T01:33:26.628Z,11.22
2022-12-14T01:34:28.995Z,12.21
2022-12-14T01:35:33.454Z,11.71
2022-12-14T01:36:36.888Z,10.66
2022-12-14T01:37:38.920Z,10.18
2022-12-14T01:38:40.818Z,10.66
2022-12-14T01:39:43.005Z,11.33
2022-12-14T01:40:45.012Z,10.21
2022-12-14T01:41:49.359Z,9.49
2022-12-14T01:42:51.370Z,10.14
2022-12-14T01:43:56.707Z,8.81
2022-12-14T01:44:58.622Z,9.94
2022-12-14T01:46:00.777Z,9.67
2022-12-14T01:47:24.819Z,9.54
2022-12-14T01:48:26.892Z,10.14
2022-12-14T01:49:35.508Z,9.70
2022-12-14T01:50:41.321Z,10.61
2022-12-14T01:51:49.843Z,10.26
2022-12-14T01:52:55.744Z,10.46
2022-12-14T01:54:00.570Z,9.91
2022-12-14T01:55:30.776Z,9.69
2022-12-14T01:56:35.159Z,9.48
2022-12-14T01:57:40.853Z,9.96
2022-12-14T01:58:42.791Z,9.32
2022-12-14T01:59:47.474Z,9.67
2022-12-14T02:00:55.999Z,9.20
2022-12-14T02:02:01.125Z,9.35
2022-12-14T02:03:07.416Z,10.23
2022-12-14T02:04:12.590Z,10.16
2022-12-14T02:05:17.648Z,10.76
2022-12-14T02:06:28.722Z,10.95
2022-12-14T02:07:32.736Z,11.63
2022-12-14T02:08:37.129Z,12.02
2022-12-14T02:09:42.551Z,12.56
2022-12-14T02:10:46.106Z,10.62
2022-12-14T02:11:57.300Z,11.02
2022-12-14T02:13:17.832Z,11.76
2022-12-14T02:14:20.179Z,11.18
2022-12-14T02:15:22.459Z,10.53
2022-12-14T02:16:24.827Z,12.81
2022-12-14T02:17:27.735Z,12.21
2022-12-14T02:18:31.458Z,12.98
2022-12-14T02:19:35.660Z,14.32
2022-12-14T02:21:15.170Z,14.07
2022-12-14T04:32:53.435Z,7.30
2022-12-14T04:33:59.215Z,7.53
2022-12-14T04:35:04.921Z,7.13
2022-12-14T04:36:11.639Z,6.74
2022-12-14T04:37:16.874Z,6.73
2022-12-14T04:38:25.293Z,7.21
2022-12-14T04:39:49.342Z,7.07
2022-12-14T04:40:54.822Z,6.91
2022-12-14T04:42:00.762Z,8.21
2022-12-14T04:43:06.281Z,6.57
2022-12-14T04:44:18.548Z,6.72
2022-12-14T04:45:33.157Z,7.15
2022-12-14T04:46:40.895Z,7.00
2022-12-14T04:47:49.400Z,6.52
2022-12-14T04:49:20.866Z,7.29
2022-12-14T04:50:29.654Z,6.53
2022-12-14T04:51:50.541Z,7.43
2022-12-14T04:52:56.276Z,7.51
2022-12-14T04:54:01.949Z,6.56
2022-12-14T04:55:07.747Z,7.53
2022-12-14T04:58:33.922Z,7.07
2022-12-14T04:59:36.810Z,7.42
2022-12-14T05:00:42.562Z,7.27
2022-12-14T05:01:54.409Z,7.31
2022-12-14T05:03:09.147Z,7.91
2022-12-14T05:04:20.753Z,8.01
2022-12-14T05:07:23.150Z,7.40
2022-12-14T05:08:46.977Z,6.49
2022-12-14T05:11:52.077Z,7.20
2022-12-14T05:12:46.701Z,8.26
2022-12-14T05:13:51.423Z,8.56
2022-12-14T05:15:05.613Z,7.78
2022-12-14T05:16:08.653Z,8.17
2022-12-14T05:17:11.743Z,7.75
2022-12-14T05:18:14.890Z,7.82
2022-12-14T05:19:17.001Z,8.20
2022-12-14T05:20:22.973Z,7.91
2022-12-14T05:21:25.049Z,8.16
2022-12-14T05:22:27.051Z,9.25
2022-12-14T05:23:29.457Z,9.39
2022-12-14T05:24:32.557Z,8.83
2022-12-14T05:25:34.676Z,8.92
2022-12-14T05:26:36.642Z,10.09
2022-12-14T05:27:39.436Z,9.08
2022-12-14T05:28:44.669Z,8.19
2022-12-14T05:29:45.254Z,9.29
2022-12-14T05:30:48.966Z,10.29
2022-12-14T05:31:51.570Z,9.37
2022-12-14T05:32:54.329Z,8.73
2022-12-14T05:33:56.330Z,10.14
2022-12-14T05:34:58.241Z,8.81
2022-12-14T05:36:00.135Z,9.39
2022-12-14T05:37:02.100Z,9.62
2022-12-14T05:38:03.998Z,9.27
2022-12-14T05:39:07.078Z,8.81
2022-12-14T05:40:11.143Z,9.09
2022-12-14T05:41:14.026Z,9.21
2022-12-14T05:42:16.341Z,8.89
2022-12-14T05:43:18.232Z,8.53
2022-12-14T05:44:20.628Z,9.02
2022-12-14T05:45:22.544Z,9.56
2022-12-14T05:46:24.764Z,10.58
2022-12-14T05:47:27.467Z,10.55
2022-12-14T05:48:30.473Z,12.31
2022-12-14T05:49:32.641Z,13.13
2022-12-14T05:50:34.752Z,11.06
2022-12-14T05:51:37.761Z,13.55
2022-12-14T05:52:39.643Z,15.19
2022-12-14T05:53:43.420Z,13.85
2022-12-14T05:54:45.324Z,13.78
2022-12-14T05:55:52.313Z,13.78
2022-12-14T05:56:54.369Z,13.78
2022-12-14T05:57:56.238Z,13.83
2022-12-14T05:58:58.096Z,12.92
2022-12-14T05:59:59.992Z,13.23
2022-12-14T06:01:05.559Z,11.84
2022-12-14T06:02:07.935Z,12.34
2022-12-14T06:03:09.960Z,11.39
2022-12-14T06:04:13.483Z,10.86
2022-12-14T06:05:16.037Z,11.19
2022-12-14T06:06:19.048Z,10.92
2022-12-14T06:07:27.329Z,11.01
2022-12-14T06:08:25.589Z,13.38
2022-12-14T06:09:27.606Z,12.54
2022-12-14T06:10:29.589Z,11.82
2022-12-14T06:11:31.487Z,13.21
2022-12-14T06:12:33.367Z,13.88
2022-12-14T06:13:36.902Z,12.42
2022-12-14T06:14:38.948Z,12.49
2022-12-14T06:15:40.857Z,11.39
2022-12-14T06:16:45.138Z,11.68
2022-12-14T06:17:47.252Z,11.62
2022-12-14T06:18:53.113Z,12.15
2022-12-14T06:19:55.136Z,12.26
2022-12-14T06:20:57.640Z,14.87
2022-12-14T06:22:00.200Z,12.03
2022-12-14T06:23:02.087Z,10.55
2022-12-14T06:24:06.031Z,12.12
2022-12-14T06:25:08.927Z,11.27
2022-12-14T06:26:14.557Z,11.44
2022-12-14T06:27:16.699Z,10.94
2022-12-14T06:28:18.590Z,11.45
2022-12-14T06:29:20.987Z,10.33
2022-12-14T06:30:23.054Z,11.80
2022-12-14T06:31:27.645Z,10.25
2022-12-14T06:32:30.686Z,13.71
2022-12-14T06:33:34.213Z,12.67
2022-12-14T06:34:39.789Z,14.58
2022-12-14T06:35:44.216Z,15.16
2022-12-14T06:36:46.500Z,13.29
2022-12-14T06:37:48.946Z,11.96
2022-12-14T06:38:52.423Z,11.29
2022-12-14T06:39:54.806Z,11.74
2022-12-14T06:40:57.060Z,11.33
2022-12-14T06:41:59.028Z,10.89
2022-12-14T06:43:00.916Z,11.92
2022-12-14T06:44:04.712Z,12.04
2022-12-14T06:45:08.184Z,12.31
2022-12-14T06:46:15.362Z,10.54
2022-12-14T06:47:16.808Z,11.42
2022-12-14T06:48:18.722Z,10.13
2022-12-14T06:49:21.053Z,11.36
2022-12-14T06:50:23.687Z,11.25
2022-12-14T06:51:26.342Z,11.34
2022-12-14T06:52:28.252Z,9.85
2022-12-14T06:53:31.141Z,9.65
2022-12-14T06:54:33.272Z,9.98
2022-12-14T06:55:35.166Z,10.39
2022-12-14T06:56:38.216Z,10.05
2022-12-14T06:57:40.324Z,9.96
2022-12-14T06:58:43.033Z,9.84
2022-12-14T06:59:44.939Z,8.26
2022-12-14T07:00:47.242Z,9.43
2022-12-14T07:01:50.015Z,11.94
2022-12-14T07:02:52.914Z,10.50
2022-12-14T07:03:57.472Z,9.77
2022-12-14T07:04:59.396Z,10.39
2022-12-14T07:06:03.305Z,11.27
2022-12-14T07:07:06.237Z,12.53
2022-12-14T07:08:08.143Z,10.71
2022-12-14T07:09:13.325Z,10.16
2022-12-14T07:10:15.382Z,11.28
2022-12-14T07:11:17.301Z,11.47
2022-12-14T07:12:19.284Z,11.37
2022-12-14T07:13:21.625Z,11.42
2022-12-14T07:14:23.540Z,12.37
2022-12-14T07:15:25.415Z,12.53
2022-12-14T07:16:28.944Z,11.57
2022-12-14T07:17:31.939Z,10.93
2022-12-14T07:18:34.234Z,11.63
2022-12-14T07:19:36.228Z,10.81
2022-12-14T07:20:38.302Z,12.05
2022-12-14T07:21:40.234Z,14.86
2022-12-14T07:22:43.124Z,12.33
2022-12-14T07:23:50.707Z,11.61
2022-12-14T07:24:52.712Z,11.52
2022-12-14T07:28:20.534Z,12.63
2022-12-14T07:29:23.187Z,13.80
2022-12-14T07:30:25.378Z,11.62
2022-12-14T07:31:28.702Z,11.91
2022-12-14T07:32:31.810Z,11.49
2022-12-14T07:33:34.110Z,11.94
2022-12-14T07:34:36.104Z,12.88
2022-12-14T07:35:39.066Z,13.47
2022-12-14T07:36:41.189Z,12.03
2022-12-14T07:37:43.277Z,13.01
2022-12-14T07:38:48.799Z,13.21
2022-12-14T07:39:50.823Z,14.61
2022-12-14T07:40:53.948Z,12.99
2022-12-14T07:41:56.019Z,12.05
2022-12-14T07:42:57.901Z,13.54
2022-12-14T07:44:00.592Z,14.79
2022-12-14T07:45:03.269Z,16.98
2022-12-14T07:46:12.376Z,16.49
2022-12-14T07:47:16.663Z,17.46
2022-12-14T07:48:18.236Z,15.56
2022-12-14T07:49:20.118Z,15.02
2022-12-14T07:50:22.467Z,15.33
2022-12-14T07:51:27.192Z,13.39
2022-12-14T07:52:32.857Z,14.39
2022-12-14T07:53:34.343Z,12.86
2022-12-14T07:54:36.248Z,14.05
2022-12-14T07:55:38.113Z,13.45
2022-12-14T07:56:42.584Z,13.27
2022-12-14T07:57:45.702Z,13.49
2022-12-14T07:58:48.655Z,14.35
2022-12-14T07:59:54.278Z,14.04
2022-12-14T08:00:54.596Z,15.79
2022-12-14T08:01:56.573Z,16.11
2022-12-14T08:02:59.109Z,15.50
2022-12-14T08:04:04.272Z,14.22
2022-12-14T08:05:12.219Z,14.48
2022-12-14T08:06:12.930Z,13.14
2022-12-14T08:07:14.832Z,13.25
2022-12-14T08:08:16.733Z,13.50
2022-12-14T08:09:18.624Z,11.79
2022-12-14T08:10:20.718Z,12.54
2022-12-14T08:11:23.011Z,13.38
2022-12-14T08:12:25.134Z,12.86
2022-12-14T08:13:27.895Z,12.04
2022-12-14T08:14:30.564Z,12.16
2022-12-14T08:15:37.402Z,12.38
2022-12-14T08:16:40.713Z,11.63
2022-12-14T08:17:42.731Z,14.68
2022-12-14T08:18:44.648Z,14.13
2022-12-14T08:19:46.559Z,13.83
2022-12-14T08:20:53.226Z,13.81
2022-12-14T08:21:54.319Z,19.11
2022-12-14T08:22:56.207Z,15.53
2022-12-14T08:23:58.094Z,14.35
2022-12-14T08:24:59.970Z,14.11
2022-12-14T08:26:03.689Z,14.11
2022-12-14T08:27:06.811Z,15.46
2022-12-14T08:28:08.970Z,17.50
2022-12-14T08:29:12.065Z,18.38
2022-12-14T08:30:15.681Z,14.62
2022-12-14T08:31:20.484Z,12.98
2022-12-14T08:32:22.657Z,13.02
2022-12-14T08:33:25.103Z,13.55
2022-12-14T08:34:27.260Z,13.56
2022-12-14T08:35:34.505Z,13.24
2022-12-14T08:36:36.628Z,13.60
2022-12-14T08:37:47.216Z,13.53
2022-12-14T08:38:45.435Z,12.99
2022-12-14T08:39:47.780Z,13.31
2022-12-14T08:40:51.238Z,13.26
2022-12-14T08:41:53.109Z,13.09
2022-12-14T08:42:55.143Z,12.71
2022-12-14T08:43:59.567Z,13.45
2022-12-14T08:45:01.488Z,12.95
2022-12-14T08:46:05.077Z,13.34
2022-12-14T08:47:07.086Z,14.31
2022-12-14T08:48:09.131Z,13.48
2022-12-14T08:49:11.128Z,13.58
2022-12-14T08:50:13.560Z,12.57
2022-12-14T08:51:15.653Z,12.07
2022-12-14T08:52:17.517Z,12.12
2022-12-14T08:53:20.724Z,13.61
2022-12-14T08:54:22.733Z,11.81
2022-12-14T08:55:29.210Z,12.17
2022-12-14T08:56:28.794Z,11.86
2022-12-14T08:57:31.575Z,11.52
2022-12-14T08:58:34.183Z,11.41
2022-12-14T09:00:00.674Z,10.07
2022-12-14T09:00:40.047Z,12.32
2022-12-14T09:01:42.392Z,11.22
2022-12-14T09:02:51.750Z,11.20
2022-12-14T09:03:54.959Z,11.84
2022-12-14T09:04:57.043Z,11.38
2022-12-14T09:06:08.227Z,10.96
2022-12-14T09:07:10.235Z,10.79
2022-12-14T09:08:12.679Z,11.31
2022-12-14T09:09:16.731Z,10.62
2022-12-14T09:10:18.548Z,11.67
2022-12-14T09:11:22.253Z,11.61
2022-12-14T09:12:24.491Z,12.26
2022-12-14T09:13:27.475Z,11.96
2022-12-14T09:14:30.185Z,11.22
2022-12-14T09:15:32.178Z,11.57
2022-12-14T09:16:34.278Z,11.03
2022-12-14T09:17:37.366Z,12.39
2022-12-14T09:18:39.577Z,11.94
2022-12-14T09:19:41.791Z,12.37
2022-12-14T09:20:44.563Z,11.55
2022-12-14T09:21:46.473Z,13.22
2022-12-14T09:22:50.680Z,13.25
2022-12-14T09:23:58.990Z,10.41
2022-12-14T09:24:56.438Z,10.89
2022-12-14T09:26:16.166Z,12.07
2022-12-14T09:27:18.097Z,11.51
2022-12-14T09:28:20.035Z,11.53
2022-12-14T09:29:21.938Z,12.01
2022-12-14T09:30:26.793Z,12.56
2022-12-14T09:31:28.055Z,12.07
2022-12-14T09:32:30.282Z,11.17
2022-12-14T09:33:33.903Z,10.74
2022-12-14T09:34:36.277Z,11.57
2022-12-14T09:35:38.286Z,11.32
2022-12-14T09:36:40.768Z,12.85
2022-12-14T09:37:42.759Z,11.20
2022-12-14T09:38:51.096Z,11.90
2022-12-14T09:39:50.630Z,11.04
2022-12-14T09:40:56.368Z,11.52
2022-12-14T09:42:29.445Z,10.17
2022-12-14T09:43:37.954Z,12.03
2022-12-14T09:45:09.050Z,14.07
2022-12-14T09:46:26.740Z,12.34
2022-12-14T09:47:41.632Z,10.74
2022-12-14T09:48:44.262Z,12.89
2022-12-14T09:49:55.543Z,12.46
2022-12-14T09:50:58.241Z,11.51
2022-12-14T09:52:03.192Z,12.06
2022-12-14T09:53:08.624Z,11.84
2022-12-14T09:54:14.332Z,11.43
2022-12-14T09:55:35.134Z,11.70
2022-12-14T09:56:39.568Z,10.34
2022-12-14T09:57:42.818Z,10.76
2022-12-14T14:38:00.040Z,17.33
2022-12-14T14:41:37.213Z,20.13
2022-12-14T14:42:55.666Z,19.38
2022-12-14T14:44:01.341Z,23.86
2022-12-14T14:45:07.210Z,26.25
2022-12-14T14:46:10.754Z,25.46
2022-12-14T14:47:17.645Z,25.15
2022-12-14T14:48:32.846Z,29.23
2022-12-14T14:49:39.353Z,30.77
2022-12-14T14:50:41.839Z,37.28
2022-12-14T14:51:43.841Z,37.09
2022-12-14T14:52:55.359Z,38.83
2022-12-14T14:56:38.974Z,31.23
2022-12-14T14:58:01.633Z,34.20
2022-12-14T14:59:22.684Z,33.41
2022-12-14T15:01:28.968Z,37.27
2022-12-14T15:02:35.182Z,41.12
2022-12-14T15:03:50.248Z,43.84
2022-12-14T15:04:56.943Z,44.99
2022-12-14T15:05:58.402Z,55.95
2022-12-14T15:07:07.374Z,64.25
2022-12-14T15:08:28.818Z,85.48
2022-12-14T15:09:47.947Z,70.54
2022-12-14T15:10:51.149Z,67.96
2022-12-14T15:11:59.857Z,70.80
2022-12-14T15:13:08.524Z,71.99
2022-12-14T15:14:34.897Z,74.57
2022-12-14T15:17:53.054Z,80.78
2022-12-14T15:18:57.170Z,70.51
2022-12-14T15:20:01.364Z,58.84
2022-12-14T15:21:06.726Z,59.16
2022-12-14T15:22:15.098Z,50.68
2022-12-14T15:23:17.632Z,47.78
2022-12-14T15:24:21.134Z,46.68
2022-12-14T15:25:26.369Z,44.09
2022-12-14T15:26:32.509Z,42.35
2022-12-14T15:27:37.795Z,40.74
2022-12-14T15:28:40.380Z,40.34
2022-12-14T15:29:45.024Z,39.65
2022-12-14T15:30:51.426Z,40.36
2022-12-14T15:31:59.492Z,40.28
2022-12-14T15:33:09.899Z,39.34
2022-12-14T15:34:19.924Z,36.44
2022-12-14T15:36:19.349Z,36.69
2022-12-14T15:37:43.496Z,35.96
2022-12-14T15:38:55.125Z,35.26
2022-12-14T15:41:07.351Z,34.76
2022-12-14T15:42:15.569Z,34.30
2022-12-14T15:43:19.909Z,33.80
2022-12-14T15:44:22.521Z,34.49
2022-12-14T15:45:28.813Z,32.38
2022-12-14T15:46:34.407Z,34.50
2022-12-14T15:47:36.853Z,34.76
2022-12-14T15:48:38.784Z,35.55
2022-12-14T15:49:40.764Z,35.33
2022-12-14T15:50:45.395Z,36.10
2022-12-14T15:51:50.600Z,38.30
2022-12-14T15:52:56.663Z,38.32
2022-12-14T15:54:01.434Z,36.30
2022-12-14T15:55:04.466Z,37.29
2022-12-14T15:56:22.966Z,36.44
2022-12-14T15:57:25.508Z,34.75
2022-12-14T15:58:31.200Z,36.49
2022-12-14T15:59:35.145Z,37.41
2022-12-14T16:00:40.964Z,34.28
2022-12-14T16:01:53.201Z,33.34
2022-12-14T16:02:51.001Z,32.87
2022-12-14T16:03:56.701Z,29.67
2022-12-14T16:05:01.467Z,31.19
2022-12-14T16:06:05.278Z,31.32
2022-12-14T16:07:17.315Z,30.99
2022-12-14T16:08:19.975Z,32.08
2022-12-14T16:09:31.899Z,30.88
2022-12-14T16:10:34.651Z,30.07
2022-12-14T16:11:43.809Z,34.19
2022-12-14T16:12:48.768Z,31.66
2022-12-14T16:13:51.806Z,31.72
2022-12-14T16:14:59.429Z,30.31
2022-12-14T16:16:05.240Z,30.04
2022-12-14T16:17:11.517Z,29.96
2022-12-14T16:18:16.717Z,31.50
2022-12-14T16:19:28.279Z,35.76
2022-12-14T16:20:36.141Z,36.48
2022-12-14T16:21:40.420Z,37.06
2022-12-14T16:22:46.121Z,38.00
2022-12-14T16:23:48.382Z,38.08
2022-12-14T16:24:59.942Z,38.39
2022-12-14T16:27:19.488Z,36.99
2022-12-14T16:28:30.396Z,37.64
2022-12-14T16:29:33.337Z,39.19
2022-12-14T16:30:36.273Z,38.60
2022-12-14T16:31:38.891Z,41.29
2022-12-14T16:32:41.441Z,40.64
2022-12-14T16:33:44.252Z,37.89
2022-12-14T16:34:54.433Z,40.35
2022-12-14T16:36:05.116Z,39.38
2022-12-14T16:37:31.733Z,38.26
2022-12-14T16:38:16.394Z,35.95
2022-12-14T16:39:21.895Z,35.07
2022-12-14T16:41:40.560Z,35.43
2022-12-14T16:42:44.140Z,37.23
2022-12-14T16:43:55.345Z,38.20
2022-12-14T16:44:57.521Z,38.91
2022-12-14T16:46:04.984Z,39.75
2022-12-14T16:47:20.071Z,37.00
2022-12-14T16:48:22.157Z,37.07
2022-12-14T16:49:40.813Z,36.85
2022-12-14T16:51:03.728Z,37.90
2022-12-14T16:52:06.817Z,34.61
2022-12-14T16:53:22.686Z,34.55
2022-12-14T16:54:28.696Z,35.36
2022-12-14T16:55:30.608Z,34.49
2022-12-14T16:56:45.369Z,36.89
2022-12-14T16:57:52.670Z,32.92
2022-12-14T16:59:06.931Z,35.29
2022-12-14T17:00:12.991Z,35.24
2022-12-14T17:01:15.209Z,34.43
2022-12-14T17:02:30.555Z,34.51
2022-12-14T17:03:35.592Z,35.57
2022-12-14T17:04:38.691Z,34.51
2022-12-14T17:05:41.708Z,33.56
2022-12-14T17:06:55.482Z,35.45
2022-12-14T17:07:58.079Z,35.32
2022-12-14T17:08:59.971Z,34.83
2022-12-14T17:10:02.387Z,35.15
2022-12-14T17:11:04.736Z,35.79
2022-12-14T17:12:15.980Z,34.47
2022-12-14T17:13:18.005Z,38.42
2022-12-14T17:14:21.362Z,38.58
2022-12-14T17:15:23.967Z,37.83
2022-12-14T17:16:26.582Z,37.10
2022-12-14T17:17:32.092Z,34.74
2022-12-14T17:18:40.713Z,36.08
2022-12-14T17:19:43.231Z,35.98
2022-12-14T17:20:45.596Z,36.07
2022-12-14T17:21:50.997Z,35.98
2022-12-14T17:22:55.399Z,37.06
2022-12-14T17:23:57.663Z,36.02
2022-12-14T17:24:59.619Z,37.08
2022-12-14T17:26:01.496Z,37.77
2022-12-14T17:27:03.561Z,37.48
2022-12-14T17:28:27.525Z,34.54
2022-12-14T17:29:30.964Z,36.06
2022-12-14T17:30:33.220Z,35.17
2022-12-14T17:31:36.189Z,36.01
2022-12-14T17:32:38.404Z,35.17
2022-12-14T17:33:40.603Z,36.48
2022-12-14T17:34:44.158Z,34.03
2022-12-14T17:35:46.061Z,35.59
2022-12-14T17:36:48.329Z,32.36
2022-12-14T17:37:51.057Z,34.66
2022-12-14T17:38:53.208Z,33.99
2022-12-14T17:39:55.073Z,34.39
2022-12-14T17:40:57.487Z,34.55
2022-12-14T17:42:00.161Z,35.18
2022-12-14T17:43:02.169Z,34.46
2022-12-14T17:44:04.796Z,34.92
2022-12-14T17:45:19.642Z,34.61
2022-12-14T17:46:22.368Z,33.58
2022-12-14T17:47:27.049Z,33.49
2022-12-14T17:48:28.970Z,32.96
2022-12-14T17:49:31.096Z,30.93
2022-12-14T17:50:33.283Z,32.81
2022-12-14T17:51:37.161Z,31.21
2022-12-14T17:52:39.104Z,30.80
2022-12-14T17:53:40.987Z,29.95
2022-12-14T17:54:43.115Z,31.81
2022-12-14T17:55:44.992Z,32.26
2022-12-14T17:56:47.087Z,32.55
2022-12-14T17:57:49.766Z,33.37
2022-12-14T17:58:51.653Z,34.03
2022-12-14T17:59:53.652Z,32.01
2022-12-14T18:00:57.176Z,32.47
2022-12-14T18:01:59.314Z,32.98
2022-12-14T18:03:03.110Z,29.93
2022-12-14T18:04:07.066Z,31.83
2022-12-14T18:05:15.925Z,32.05
2022-12-14T18:06:18.612Z,33.17
2022-12-14T18:07:20.686Z,31.34
2022-12-14T18:08:23.191Z,32.19
2022-12-14T18:09:25.526Z,33.53
